Wright Pat, Ohio
Current Conditions -  °F | °C
As of 4:58 AM on Monday 22 Dec 2014 (Local Time) from KFFO Reporting Station
Broken Clouds Broken Clouds  
Wind Chill: -5°   Ceiling: 4400
Heat Index: -5°   Visibility: 10mi
Dew Point: -6°   Wind: 3mph
Humidity: 88%   Direction: 60°ENE
Pressure: 30.04"   Gusts: NA
Location:  39.8169°N, 84.0506°W
Report Text: KFFO 220958Z AUTO 06003KT 10SM BKN044 M05/M06 A3004 RMK AO2 SLP185 T10461063
Loading
Personal Weather Stations






























Interactive Weather Map New forecast layout! Learn more

10-Day Weather Forecast

Advertisements
Track Severe Weather on mobile